This is the latest recevied weather packets stored in our database for station/object W1SGB. If no packets are shown the sender has not sent any weather packets the latest 10 day(s).
| Time | Temp. | Humidity | Pressure | Rain* | Wind** | Luminosity | Snow |
|---|---|---|---|---|---|---|---|
| 1778253617 | 13.33° C | 45% | 1010 hPa | 0 mm | - | 722 W/m² | - |
| 1778249421 | 12.22° C | 48% | 1010.3 hPa | 0 mm | - | 511 W/m² | - |
| 1778248841 | 11.67° C | 48% | 1010.5 hPa | 0 mm | - | 59 W/m² | - |
| 1778247621 | 11.67° C | 47% | 1010.6 hPa | 0 mm | - | 281 W/m² | - |
| 1778246422 | 11.11° C | 47% | 1010.7 hPa | 0 mm | - | 66 W/m² | - |
| 1778245821 | 10.56° C | 48% | 1010.7 hPa | 0 mm | - | 83 W/m² | - |
| 1778239821 | 5.56° C | 67% | 1010.5 hPa | 0 mm | - | 31 W/m² | - |
| 1778239240 | 4.44° C | 74% | 1010.5 hPa | 0 mm | - | 29 W/m² | - |
| 1778236821 | 3.89° C | 77% | 1010.1 hPa | 0 mm | - | 23 W/m² | - |
| 1778230823 | 4.44° C | 75% | 1009.4 hPa | 0 mm | - | 0 W/m² | - |
| 1778229623 | 4.44° C | 76% | 1009.3 hPa | 0 mm | - | 0 W/m² | - |
| 1778221245 | 5.56° C | 72% | 1007.9 hPa | 0 mm | - | 0 W/m² | - |
| 1778218226 | 5° C | 74% | 1008.1 hPa | 0 mm | - | 0 W/m² | - |
| 1778215818 | 5.56° C | 71% | 1008.5 hPa | 0 mm | - | 0 W/m² | - |
| 1778208677 | 7.22° C | 63% | 1008.9 hPa | 0 mm | - | 0 W/m² | - |
| 1778208017 | 7.78° C | 62% | 1008.9 hPa | 0 mm | - | 0 W/m² | - |
| 1778204418 | 10° C | 50% | 1008.9 hPa | 0 mm | - | 0 W/m² | - |
| 1778199617 | 12.22° C | 42% | 1007.6 hPa | 0 mm | - | 0 W/m² | - |
| 1778194218 | 14.44° C | 39% | 1007 hPa | 0 mm | - | 35 W/m² | - |
| 1778193619 | 15° C | 39% | 1006.9 hPa | 0 mm | - | 40 W/m² | - |
| 1778192419 | 16.11° C | 38% | 1006.7 hPa | 0 mm | - | 157 W/m² | - |
| 1778191219 | 16.11° C | 37% | 1006.7 hPa | 0 mm | - | 244 W/m² | - |
| 1778189420 | 16.67° C | 36% | 1006.3 hPa | 0 mm | - | 345 W/m² | - |
| 1778188819 | 16.67° C | 37% | 1006.2 hPa | 0 mm | - | 377 W/m² | - |
| 1778184618 | 16.67° C | 37% | 1006.1 hPa | 0 mm | - | 621 W/m² | - |
* Rain latest hour (hover to see other rain measurements)
** Current wind speed in m/s (hover to see current wind gust speed)